Latest Weather Observations for Little Bay

IDN60801

Issued at 4:32 am EDT Wednesday 7 December 2016 (issued every 30 minutes, with the page automatically refreshed every 10 minutes)

About weather observations | Map of weather stations | Latest weather observations for NSW | Other Formats
Station Details ID: 066051 Name: LITTLE BAY (THE COAST GOLF CLUB) Lat: -33.98 Lon: 151.25 Height: 22.0 m
Data from the previous 72 hours. | See also: Recent months for locations in New South Wales
Date/Time
EDT
Temp
°C
App
Temp
°C
Dew
Point
°C
Rel
Hum
%
Delta-T
°C
Wind Press
QNH
hPa
Press
MSL
hPa
Rain since
9am
mm
Dir  Spd
km/h
Gust
km/h
Spd
kts
Gust
kts
07/04:30am - - - - - SE 13 17 7 9 - - -
07/04:00am - - - - - SSE 9 15 5 8 - - -
07/03:30am - - - - - SSE 15 19 8 10 - - -
07/03:00am - - - - - SSE 15 22 8 12 - - -
07/02:30am - - - - - S 17 26 9 14 - - -
07/02:00am - - - - - SW 19 32 10 17 - - -
07/01:30am - - - - - SSW 20 32 11 17 - - -
07/01:00am - - - - - SSW 19 26 10 14 - - -
07/12:30am - - - - - SSW 15 22 8 12 - - -
07/12:00am - - - - - SSW 19 26 10 14 - - -
 
Date/Time
EDT
Temp
°C
App
Temp
°C
Dew
Point
°C
Rel
Hum
%
Delta-T
°C
Wind Press
QNH
hPa
Press
MSL
hPa
Rain since
9am
mm
Dir  Spd
km/h
Gust
km/h
Spd
kts
Gust
kts
06/11:30pm - - - - - SSW 19 28 10 15 - - -
06/11:00pm - - - - - SSW 22 30 12 16 - - -
06/10:30pm - - - - - SSW 11 30 6 16 - - -
06/10:00pm - - - - - W 11 15 6 8 - - -
06/09:30pm - - - - - WNW 9 15 5 8 - - -
06/09:00pm - - - - - W 13 20 7 11 - - -
06/08:30pm - - - - - WNW 13 17 7 9 - - -
06/08:00pm - - - - - WNW 11 19 6 10 - - -
06/07:30pm - - - - - WNW 9 13 5 7 - - -
06/07:00pm - - - - - NW 7 11 4 6 - - -
06/06:30pm - - - - - WNW 4 6 2 3 - - -
06/06:00pm - - - - - WSW 4 4 2 2 - - -
06/05:30pm - - - - - WSW 2 4 1 2 - - -
06/05:00pm - - - - - W 4 6 2 3 - - -
06/04:30pm - - - - - NW 4 6 2 3 - - -
06/04:00pm - - - - - N 6 7 3 4 - - -
06/03:30pm - - - - - NNE 6 7 3 4 - - -
06/03:00pm - - - - - NE 6 6 3 3 - - -
06/02:30pm - - - - - NE 7 9 4 5 - - -
06/02:00pm - - - - - SSW 2 6 1 3 - - -
06/01:30pm - - - - - SSE 9 11 5 6 - - -
06/01:00pm - - - - - SSE 9 13 5 7 - - -
06/12:30pm - - - - - S 9 13 5 7 - - -
06/12:00pm - - - - - SSE 13 17 7 9 - - -
06/11:30am - - - - - S 15 19 8 10 - - -
06/11:00am - - - - - SSW 15 19 8 10 - - -
06/10:30am - - - - - SSW 13 19 7 10 - - -
06/10:00am - - - - - S 13 17 7 9 - - -
06/09:30am - - - - - SSW 15 19 8 10 - - -
06/09:00am - - - - - SW 11 17 6 9 - - -
06/08:30am - - - - - SW 13 19 7 10 - - -
06/08:00am - - - - - SSW 19 24 10 13 - - -
06/07:30am - - - - - SSW 20 26 11 14 - - -
06/07:00am - - - - - SSW 19 24 10 13 - - -
06/06:30am - - - - - SSW 20 28 11 15 - - -
06/06:00am - - - - - S 17 26 9 14 - - -
06/05:30am - - - - - S 19 26 10 14 - - -
06/05:00am - - - - - S 17 24 9 13 - - -
06/04:30am - - - - - S 13 17 7 9 - - -
06/04:00am - - - - - S 15 20 8 11 - - -
06/03:30am - - - - - SSW 11 17 6 9 - - -
06/03:00am - - - - - SSW 11 17 6 9 - - -
06/02:30am - - - - - SSW 11 17 6 9 - - -
06/02:00am - - - - - SW 11 19 6 10 - - -
06/01:30am - - - - - SSW 15 20 8 11 - - -
06/01:00am - - - - - SW 9 15 5 8 - - -
06/12:30am - - - - - SSW 11 19 6 10 - - -
06/12:00am - - - - - S 22 33 12 18 - - -
 
Date/Time
EDT
Temp
°C
App
Temp
°C
Dew
Point
°C
Rel
Hum
%
Delta-T
°C
Wind Press
QNH
hPa
Press
MSL
hPa
Rain since
9am
mm
Dir  Spd
km/h
Gust
km/h
Spd
kts
Gust
kts
05/11:30pm - - - - - S 30 44 16 24 - - -
05/11:00pm - - - - - S 33 52 18 28 - - -
05/10:46pm - - - - - S 39 57 21 31 - - -
05/10:30pm - - - - - S 37 52 20 28 - - -
05/10:00pm - - - - - SSW 33 46 18 25 - - -
05/09:30pm - - - - - SSW 33 50 18 27 - - -
05/09:13pm - - - - - SSW 28 43 15 23 - - -
05/09:00pm - - - - - W 7 22 4 12 - - -
05/08:30pm - - - - - N 13 19 7 10 - - -
05/08:00pm - - - - - N 19 26 10 14 - - -
05/07:30pm - - - - - N 20 28 11 15 - - -
05/07:00pm - - - - - N 20 32 11 17 - - -
05/06:30pm - - - - - NNE 13 17 7 9 - - -
05/06:00pm - - - - - ENE 11 17 6 9 - - -
05/05:30pm - - - - - W 6 15 3 8 - - -
05/05:00pm - - - - - WSW 19 32 10 17 - - -
05/04:30pm - - - - - N 15 46 8 25 - - -
05/04:00pm - - - - - NNE 11 17 6 9 - - -
05/03:30pm - - - - - NNW 20 30 11 16 - - -
05/03:00pm - - - - - NE 6 13 3 7 - - -
05/02:30pm - - - - - NE 9 13 5 7 - - -
05/02:00pm - - - - - NE 7 11 4 6 - - -
05/01:30pm - - - - - NE 9 13 5 7 - - -
05/01:00pm - - - - - NNE 7 11 4 6 - - -
05/12:30pm - - - - - NE 11 15 6 8 - - -
05/12:00pm - - - - - NE 13 17 7 9 - - -
05/11:30am - - - - - NE 15 20 8 11 - - -
05/11:00am - - - - - NNE 13 19 7 10 - - -
05/10:30am - - - - - NNE 15 19 8 10 - - -
05/10:00am - - - - - N 15 24 8 13 - - -
05/09:30am - - - - - N 19 26 10 14 - - -
05/09:00am - - - - - N 15 20 8 11 - - -
05/08:30am - - - - - N 17 24 9 13 - - -
05/08:00am - - - - - NE 13 19 7 10 - - -
05/07:30am - - - - - E 15 20 8 11 - - -
05/07:00am - - - - - SE 11 19 6 10 - - -
05/06:30am - - - - - E 6 11 3 6 - - -
05/06:00am - - - - - WSW 7 11 4 6 - - -
05/05:30am - - - - - SSE 13 17 7 9 - - -
05/05:00am - - - - - SSE 13 15 7 8 - - -
05/04:30am - - - - - SE 7 9 4 5 - - -
05/04:00am - - - - - SE 6 7 3 4 - - -
05/03:30am - - - - - E 4 9 2 5 - - -
05/03:00am - - - - - NNE 2 4 1 2 - - -
05/02:30am - - - - - NNE 7 13 4 7 - - -
05/02:00am - - - - - N 7 11 4 6 - - -
05/01:30am - - - - - NNE 11 15 6 8 - - -
05/01:00am - - - - - N 15 19 8 10 - - -
05/12:30am - - - - - N 11 15 6 8 - - -
05/12:00am - - - - - NNE 17 22 9 12 - - -
 
Date/Time
EDT
Temp
°C
App
Temp
°C
Dew
Point
°C
Rel
Hum
%
Delta-T
°C
Wind Press
QNH
hPa
Press
MSL
hPa
Rain since
9am
mm
Dir  Spd
km/h
Gust
km/h
Spd
kts
Gust
kts
04/11:30pm - - - - - NNE 24 33 13 18 - - -
04/11:00pm - - - - - NNE 19 28 10 15 - - -
04/10:30pm - - - - - N 17 24 9 13 - - -
04/10:00pm - - - - - NNE 17 24 9 13 - - -
04/09:30pm - - - - - NNE 15 24 8 13 - - -
04/09:00pm - - - - - NNE 20 28 11 15 - - -
04/08:30pm - - - - - NNE 20 28 11 15 - - -
04/08:00pm - - - - - NNE 20 28 11 15 - - -
04/07:30pm - - - - - NNE 20 28 11 15 - - -
04/07:00pm - - - - - NNE 22 32 12 17 - - -
04/06:30pm - - - - - NNE 20 28 11 15 - - -
04/06:00pm - - - - - NNE 22 30 12 16 - - -
04/05:30pm - - - - - NE 22 28 12 15 - - -
04/05:00pm - - - - - NE 22 28 12 15 - - -
04/04:30pm - - - - - NE 19 26 10 14 - - -
04/04:00pm - - - - - NE 15 24 8 13 - - -
04/03:30pm - - - - - NE 15 22 8 12 - - -
04/03:00pm - - - - - NE 15 22 8 12 - - -
04/02:30pm - - - - - NE 15 20 8 11 - - -
04/02:00pm - - - - - ENE 13 19 7 10 - - -
04/01:30pm - - - - - ENE 15 20 8 11 - - -
04/01:00pm - - - - - ENE 15 20 8 11 - - -
04/12:30pm - - - - - ENE 15 20 8 11 - - -
04/12:00pm - - - - - ENE 15 20 8 11 - - -
04/11:30am - - - - - NE 13 17 7 9 - - -
04/11:00am - - - - - NE 13 19 7 10 - - -
04/10:30am - - - - - NE 11 15 6 8 - - -
04/10:00am - - - - - NE 11 15 6 8 - - -
04/09:30am - - - - - ENE 7 9 4 5 - - -
04/09:00am - - - - - NE 6 9 3 5 - - -
04/08:30am - - - - - W 2 4 1 2 - - -
04/08:00am - - - - - WSW 6 7 3 4 - - -
04/07:30am - - - - - W 4 6 2 3 - - -
04/07:00am - - - - - W 2 4 1 2 - - -
04/06:30am - - - - - CALM 0 2 0 1 - - -
04/06:00am - - - - - SW 4 4 2 2 - - -
04/05:30am - - - - - SW 4 4 2 2 - - -
04/05:00am - - - - - SW 6 6 3 3 - - -

Other Formats:

Comma delimited format used in spreadsheet applications
http://www.bom.gov.au/fwo/IDN60801/IDN60801.94780.axf

JavaScript Object Notation format (JSON) in row-major order
http://www.bom.gov.au/fwo/IDN60801/IDN60801.94780.json